Time;durP1;ratioP1;P1;durP2;ratioP2;P2;SDS_P1;SDS_P2;PMS_P1;PMS_P2;Temp;Humidity;BMP_temperature;BMP_pressure;BME280_temperature;BME280_humidity;BME280_pressure;Samples;Min_cycle;Max_cycle;Signal;HPM_P1;HPM_P2
2023/07/15 00:00:54;;;;;;;11.07;8.85;;;;;;;-145.63;62.04;39032.06;5023299;28;20102;-69
2023/07/15 00:03:20;;;;;;;13.25;8.85;;;;;;;-145.63;61.77;39030.13;5023897;28;20034;-70
2023/07/15 00:05:47;;;;;;;9.70;8.60;;;;;;;-145.63;62.06;39047.72;5023502;28;20033;-70
2023/07/15 00:08:12;;;;;;;10.10;9.10;;;;;;;-145.63;61.98;39047.72;5023184;28;20057;-71
2023/07/15 00:10:42;;;;;;;11.00;9.25;;;;;;;-145.63;61.87;39045.75;5023072;28;20345;-70
2023/07/15 00:13:15;;;;;;;13.13;9.85;;;;;;;-145.63;61.97;39092.69;5023001;28;20319;-69
2023/07/15 00:15:43;;;;;;;10.77;8.93;;;;;;;-145.63;61.89;39120.06;5005185;28;20164;-70
2023/07/15 00:18:09;;;;;;;13.43;9.63;;;;;;;-145.63;62.21;39004.69;5023108;28;20026;-70
2023/07/15 00:20:35;;;;;;;14.80;10.50;;;;;;;-145.63;62.13;39043.81;5022569;28;20036;-71
2023/07/15 00:23:02;;;;;;;11.10;9.93;;;;;;;-145.63;62.23;39032.06;5004812;28;20048;-72
2023/07/15 00:25:30;;;;;;;12.50;9.20;;;;;;;-145.63;62.19;39030.13;5011806;28;20025;-71
2023/07/15 00:27:56;;;;;;;10.52;9.43;;;;;;;-145.63;62.04;39034.03;5022853;28;20022;-71
2023/07/15 00:30:22;;;;;;;10.98;9.77;;;;;;;-145.63;61.89;39022.28;5022736;28;20266;-71
2023/07/15 00:32:49;;;;;;;15.10;10.73;;;;;;;-145.63;61.87;39039.88;5022810;28;20056;-71
2023/07/15 00:35:19;;;;;;;13.23;9.98;;;;;;;-145.63;62.03;39020.34;5005151;28;20262;-71
2023/07/15 00:37:47;;;;;;;11.98;9.30;;;;;;;-145.63;61.61;39047.72;5022760;28;20044;-71
2023/07/15 00:40:13;;;;;;;17.13;11.05;;;;;;;-145.63;61.54;39057.50;5022812;28;20018;-71
2023/07/15 00:43:00;;;;;;;10.68;9.32;;;;;;;-145.63;61.65;39116.16;5022877;28;20291;-72
2023/07/15 00:45:25;;;;;;;9.65;8.68;;;;;;;-145.63;61.62;39069.22;5026644;28;20368;-71
2023/07/15 00:48:07;;;;;;;9.80;8.90;;;;;;;-145.63;61.56;39032.06;5026735;28;20026;-70
2023/07/15 00:50:32;;;;;;;13.87;10.53;;;;;;;-145.63;62.02;39049.66;5026605;28;20049;-69
2023/07/15 00:52:58;;;;;;;10.60;9.30;;;;;;;-145.63;62.12;39067.28;5026043;28;20057;-69
2023/07/15 00:55:24;;;;;;;10.43;8.73;;;;;;;-145.63;61.70;39055.53;5026341;28;20030;-68
2023/07/15 00:57:50;;;;;;;11.40;9.38;;;;;;;-145.63;61.83;39098.56;5026135;28;20032;-68
2023/07/15 01:00:18;;;;;;;11.52;9.90;;;;;;;-145.63;61.36;39080.97;5008607;28;20040;-68
2023/07/15 01:02:44;;;;;;;8.70;7.47;;;;;;;-145.63;61.36;39055.53;5026186;28;20073;-69
2023/07/15 01:05:10;;;;;;;9.80;8.68;;;;;;;-145.63;61.54;39047.72;5026001;28;20034;-69
2023/07/15 01:07:36;;;;;;;10.77;8.15;;;;;;;-145.63;60.96;39075.09;5026084;28;20057;-69
2023/07/15 01:10:02;;;;;;;13.07;9.77;;;;;;;-145.63;60.91;38570.56;5008702;28;20036;-69
2023/07/15 01:12:29;;;;;;;7.35;6.70;;;;;;;-145.63;60.90;39002.72;5008371;28;20102;-69
2023/07/15 01:14:55;;;;;;;7.90;7.10;;;;;;;-145.63;61.13;39075.09;5025964;28;20022;-68
2023/07/15 01:17:20;;;;;;;6.35;5.50;;;;;;;-145.63;60.13;39063.34;5008383;28;20060;-69
2023/07/15 01:19:46;;;;;;;6.60;6.00;;;;;;;-145.63;59.82;39082.91;5025875;28;20057;-69
2023/07/15 01:22:12;;;;;;;6.80;5.80;;;;;;;-145.63;60.17;39075.09;5026002;28;20257;-70
2023/07/15 01:24:39;;;;;;;6.78;4.85;;;;;;;-145.63;59.34;39090.75;5025602;28;20021;-71
2023/07/15 01:27:08;;;;;;;6.10;5.25;;;;;;;-145.63;59.67;39094.66;5025827;28;20030;-70
2023/07/15 01:29:34;;;;;;;5.38;4.88;;;;;;;-145.63;59.69;39075.09;5025582;28;20084;-70
2023/07/15 01:32:00;;;;;;;7.05;5.30;;;;;;;-145.63;59.19;39080.97;5025495;28;20030;-70
2023/07/15 01:34:25;;;;;;;7.75;4.93;;;;;;;-145.63;58.82;39102.47;5025412;28;20030;-70
2023/07/15 01:36:51;;;;;;;5.93;3.92;;;;;;;-145.63;59.36;39051.63;5025633;28;20037;-71
2023/07/15 01:39:17;;;;;;;6.03;3.50;;;;;;;-145.63;59.09;39086.81;5008016;28;20063;-72
2023/07/15 01:41:46;;;;;;;4.30;3.30;;;;;;;-145.63;59.00;39086.81;5025611;28;20018;-69
2023/07/15 01:44:12;;;;;;;4.22;3.25;;;;;;;-145.63;59.23;39086.81;5025373;28;20026;-70
2023/07/15 01:46:39;;;;;;;4.32;3.63;;;;;;;-145.63;58.87;39088.78;5025409;28;20152;-70
2023/07/15 01:49:08;;;;;;;3.42;3.10;;;;;;;-145.63;59.11;39098.56;5025171;28;20037;-70
2023/07/15 01:51:37;;;;;;;4.22;3.38;;;;;;;-145.63;59.50;39090.75;5025320;28;20036;-69
2023/07/15 01:54:03;;;;;;;7.07;3.30;;;;;;;-145.63;59.39;39092.69;5025322;28;20044;-69
2023/07/15 01:56:29;;;;;;;3.28;2.97;;;;;;;-145.63;59.20;39106.38;5007446;28;20021;-70
2023/07/15 01:58:54;;;;;;;4.25;3.15;;;;;;;-145.63;59.09;39147.44;5025268;28;20033;-70
2023/07/15 02:01:20;;;;;;;3.55;2.88;;;;;;;-145.63;59.38;39071.19;5024916;28;20034;-70
2023/07/15 02:03:45;;;;;;;4.30;3.90;;;;;;;-145.63;59.68;39110.28;5025063;28;20089;-73
2023/07/15 02:06:13;;;;;;;4.10;3.22;;;;;;;-145.63;59.72;38535.38;5025102;28;20199;-72
2023/07/15 02:08:39;;;;;;;3.60;3.30;;;;;;;-145.63;59.74;39086.81;5024948;28;20049;-73
2023/07/15 02:11:04;;;;;;;3.40;3.10;;;;;;;-145.63;59.70;39086.81;5024822;28;20025;-73
2023/07/15 02:13:30;;;;;;;4.15;3.15;;;;;;;-145.63;60.15;39092.69;5024852;28;20092;-73
2023/07/15 02:15:55;;;;;;;4.03;3.40;;;;;;;-145.63;60.00;39122.03;5024883;28;20022;-71
2023/07/15 02:18:24;;;;;;;5.07;4.10;;;;;;;-145.63;60.17;39098.56;5024718;28;20226;-71
2023/07/15 02:20:49;;;;;;;3.72;3.22;;;;;;;-145.63;60.46;39133.75;5024640;28;20034;-71
2023/07/15 02:23:16;;;;;;;3.22;2.85;;;;;;;-145.63;59.67;39106.38;5024512;28;20154;-70
2023/07/15 02:25:42;;;;;;;3.97;2.83;;;;;;;-145.63;60.13;39082.91;5007163;28;20033;-71
2023/07/15 02:28:07;;;;;;;3.85;2.75;;;;;;;-145.63;59.71;39102.47;5024670;28;20033;-71
2023/07/15 02:30:33;;;;;;;3.00;2.70;;;;;;;-145.63;59.88;39100.50;5024366;28;20350;-70
2023/07/15 02:32:58;;;;;;;3.25;2.95;;;;;;;-145.63;59.63;39090.75;5024446;28;20053;-69
2023/07/15 02:35:24;;;;;;;4.55;3.38;;;;;;;-145.63;60.15;39125.94;5024378;28;20030;-70
2023/07/15 02:37:50;;;;;;;2.65;2.45;;;;;;;-145.63;59.89;39106.38;5024133;28;20033;-71
2023/07/15 02:40:16;;;;;;;3.17;2.88;;;;;;;-145.63;59.84;39077.06;5024033;28;20101;-70
2023/07/15 02:42:42;;;;;;;2.75;2.55;;;;;;;-145.63;60.44;39104.44;5024563;28;20360;-70
2023/07/15 02:45:11;;;;;;;5.38;2.72;;;;;;;-145.63;60.25;39067.28;5006643;28;20029;-68
2023/07/15 02:47:39;;;;;;;6.35;2.90;;;;;;;-145.63;60.25;39118.13;5024278;28;20029;-69
2023/07/15 02:50:07;;;;;;;2.85;2.65;;;;;;;-145.63;60.35;39071.19;5024190;28;20032;-71
2023/07/15 02:52:34;;;;;;;2.67;2.47;;;;;;;-145.63;60.40;39125.94;5024117;28;20033;-72
2023/07/15 02:55:00;;;;;;;3.40;2.42;;;;;;;-145.63;60.19;39114.22;5024055;28;20034;-71
2023/07/15 02:57:27;;;;;;;2.50;2.30;;;;;;;-145.63;60.88;39125.94;5024263;28;20056;-71
2023/07/15 02:59:53;;;;;;;3.05;2.60;;;;;;;-145.63;60.81;39141.59;5024096;28;20026;-70
2023/07/15 03:02:20;;;;;;;3.22;2.40;;;;;;;-145.63;60.84;39067.28;5023988;28;20030;-71
2023/07/15 03:04:47;;;;;;;2.45;2.25;;;;;;;-145.63;60.81;39116.16;5023934;28;20029;-69
2023/07/15 03:07:13;;;;;;;3.78;2.33;;;;;;;-145.63;60.54;39098.56;5023419;28;20326;-69
2023/07/15 03:09:39;;;;;;;3.53;1.90;;;;;;;-145.63;60.28;39102.47;5023922;28;20021;-69
2023/07/15 03:12:05;;;;;;;4.43;2.33;;;;;;;-145.63;60.67;39122.03;5023886;28;20068;-70
2023/07/15 03:14:30;;;;;;;2.75;2.20;;;;;;;-145.63;60.69;39092.69;5023801;28;20046;-70
2023/07/15 03:16:56;;;;;;;2.75;2.25;;;;;;;-145.63;61.00;39116.16;5006010;28;20334;-71
2023/07/15 03:19:21;;;;;;;3.40;3.10;;;;;;;-145.63;60.94;39100.50;5023642;28;20044;-69
2023/07/15 03:21:47;;;;;;;4.15;2.13;;;;;;;-145.63;61.11;39088.78;5023655;28;20262;-69
2023/07/15 03:24:13;;;;;;;2.88;2.67;;;;;;;-145.63;61.21;39116.16;5023486;28;20072;-69
2023/07/15 03:26:39;;;;;;;3.90;2.78;;;;;;;-145.63;61.33;39104.44;5023205;28;20089;-69
2023/07/15 03:29:08;;;;;;;2.35;2.15;;;;;;;-145.63;61.60;39094.66;5023385;28;20029;-69
2023/07/15 03:31:34;;;;;;;3.45;2.25;;;;;;;-145.63;61.56;39088.78;5023299;28;20107;-69
2023/07/15 03:34:00;;;;;;;2.22;2.03;;;;;;;-145.63;61.46;39110.28;5023420;28;20034;-70
2023/07/15 03:36:26;;;;;;;2.92;2.63;;;;;;;-145.63;61.69;39086.81;5023262;28;20051;-69
2023/07/15 03:38:51;;;;;;;3.25;2.20;;;;;;;-145.63;61.20;39090.75;5023333;28;20101;-69
2023/07/15 03:41:17;;;;;;;2.70;2.50;;;;;;;-145.63;61.35;39090.75;5023133;28;20065;-70
2023/07/15 03:43:42;;;;;;;3.25;2.45;;;;;;;-145.63;60.97;39098.56;5023302;28;20072;-70
2023/07/15 03:46:08;;;;;;;2.95;2.42;;;;;;;-145.63;61.13;39127.91;5023271;28;20022;-70
2023/07/15 03:48:34;;;;;;;2.65;2.45;;;;;;;-145.63;61.14;39082.91;5005973;28;20038;-70
2023/07/15 03:50:59;;;;;;;2.72;2.53;;;;;;;-145.63;60.85;39086.81;5005379;28;20036;-69
2023/07/15 03:53:25;;;;;;;2.85;2.63;;;;;;;-145.63;61.36;39075.09;5022995;28;20045;-69
2023/07/15 03:55:51;;;;;;;4.22;2.42;;;;;;;-145.63;61.03;39090.75;5023319;28;20041;-69
2023/07/15 03:58:16;;;;;;;3.15;2.88;;;;;;;-145.63;61.19;39082.91;5022951;28;20030;-70
2023/07/15 04:00:42;;;;;;;2.45;2.25;;;;;;;-145.63;61.04;39084.88;5023083;28;20030;-70
2023/07/15 04:03:08;;;;;;;3.47;2.88;;;;;;;-145.63;60.89;39084.88;5023103;28;20322;-69
2023/07/15 04:05:33;;;;;;;3.08;2.70;;;;;;;-145.63;60.92;39055.53;5022672;28;20103;-67
2023/07/15 04:07:59;;;;;;;2.35;2.15;;;;;;;-145.63;60.93;39094.66;5023114;28;20030;-67
2023/07/15 04:10:26;;;;;;;4.28;2.78;;;;;;;-145.63;60.70;39096.59;5022938;28;20069;-67
2023/07/15 04:12:51;;;;;;;3.25;2.83;;;;;;;-145.63;60.89;39063.34;5022934;28;20088;-67
2023/07/15 04:15:17;;;;;;;2.75;2.55;;;;;;;-145.63;60.90;39051.63;5022743;28;20038;-67
2023/07/15 04:17:43;;;;;;;4.28;2.95;;;;;;;-145.63;61.05;39086.81;5022996;28;20030;-67
2023/07/15 04:20:15;;;;;;;3.08;2.75;;;;;;;-145.63;61.21;39075.09;5009548;28;20025;-67
2023/07/15 04:22:41;;;;;;;3.53;2.67;;;;;;;-145.63;61.09;39057.50;5027026;28;20091;-67
2023/07/15 04:25:07;;;;;;;3.28;2.97;;;;;;;-145.63;60.94;39086.81;5026567;28;20021;-67
2023/07/15 04:27:33;;;;;;;3.08;2.75;;;;;;;-145.63;61.04;39080.97;5027170;28;20029;-67
2023/07/15 04:29:59;;;;;;;5.15;3.10;;;;;;;-145.63;61.13;39082.91;5026857;28;20029;-66
2023/07/15 04:32:24;;;;;;;4.25;2.90;;;;;;;-145.63;61.32;39071.19;5026525;28;20125;-67
2023/07/15 04:34:50;;;;;;;2.60;2.40;;;;;;;-145.63;61.19;39084.88;5026633;28;20021;-68
2023/07/15 04:37:18;;;;;;;3.20;2.90;;;;;;;-145.63;61.18;39098.56;5026130;28;20033;-67
2023/07/15 04:39:44;;;;;;;3.03;2.47;;;;;;;-145.63;61.33;39096.59;5008852;28;20017;-67
2023/07/15 04:42:10;;;;;;;3.25;2.95;;;;;;;-145.63;61.32;39047.72;5026503;28;20032;-67
2023/07/15 04:44:35;;;;;;;3.10;2.80;;;;;;;-145.63;61.58;39094.66;5009016;28;20038;-65
2023/07/15 04:47:01;;;;;;;4.50;2.38;;;;;;;-145.63;61.25;39071.19;5009134;28;20030;-66
2023/07/15 04:49:27;;;;;;;3.60;2.75;;;;;;;-145.63;61.64;39090.75;5026534;28;20250;-65
2023/07/15 04:51:52;;;;;;;4.22;2.00;;;;;;;-145.63;61.48;39065.31;5026432;28;20298;-66
2023/07/15 04:54:18;;;;;;;4.00;2.45;;;;;;;-145.63;61.40;39108.34;5026504;28;20029;-65
2023/07/15 04:56:44;;;;;;;2.55;2.20;;;;;;;-145.63;61.59;39053.59;5026372;28;20318;-65
2023/07/15 04:59:10;;;;;;;2.35;2.10;;;;;;;-145.63;61.71;39047.72;5025725;28;20214;-66
2023/07/15 05:01:36;;;;;;;4.70;2.58;;;;;;;-145.63;61.19;39057.50;5026262;28;20087;-66
2023/07/15 05:04:03;;;;;;;3.65;2.50;;;;;;;-145.63;61.97;39063.34;5026254;28;20292;-67
2023/07/15 05:06:29;;;;;;;2.60;2.20;;;;;;;-145.63;61.97;39082.91;5026197;28;20049;-68
2023/07/15 05:08:55;;;;;;;1.90;1.70;;;;;;;-145.63;62.02;39086.81;5025978;28;20329;-66
2023/07/15 05:11:20;;;;;;;3.35;1.75;;;;;;;-145.63;61.83;39069.22;5025697;28;20033;-67
2023/07/15 05:13:46;;;;;;;2.65;1.85;;;;;;;-145.63;61.56;39067.28;5025616;28;20330;-66
2023/07/15 05:16:14;;;;;;;2.60;1.67;;;;;;;-145.63;61.60;39100.50;5008370;28;20046;-66
2023/07/15 05:18:40;;;;;;;2.20;1.95;;;;;;;-145.63;61.81;39075.09;5025744;28;20033;-65
2023/07/15 05:21:06;;;;;;;2.60;1.92;;;;;;;-145.63;61.83;39051.63;5025577;28;20029;-65
2023/07/15 05:23:32;;;;;;;2.15;1.80;;;;;;;-145.63;61.73;39090.75;5025623;28;20026;-65
2023/07/15 05:26:01;;;;;;;1.90;1.80;;;;;;;-145.63;61.74;39069.22;5025607;28;20113;-65
2023/07/15 05:28:33;;;;;;;1.90;1.80;;;;;;;-145.63;61.68;38918.66;5025380;28;20030;-66
2023/07/15 05:30:59;;;;;;;4.53;1.73;;;;;;;-145.63;62.23;39067.28;5025498;28;20064;-65
2023/07/15 05:33:25;;;;;;;1.70;1.60;;;;;;;-145.63;61.88;39100.50;5025512;28;20025;-66
2023/07/15 05:35:51;;;;;;;1.60;1.50;;;;;;;-145.63;61.73;39067.28;5025735;28;20037;-65
2023/07/15 05:38:16;;;;;;;2.25;1.90;;;;;;;-145.63;61.95;39051.63;5025482;28;20144;-66
2023/07/15 05:40:42;;;;;;;1.73;1.63;;;;;;;-145.63;61.85;39118.13;5025458;28;20026;-66
2023/07/15 05:43:08;;;;;;;2.10;1.90;;;;;;;-145.63;61.44;39080.97;5025224;28;20057;-65
2023/07/15 05:45:34;;;;;;;1.70;1.60;;;;;;;-145.63;61.49;39098.56;5025401;28;20034;-65
2023/07/15 05:48:00;;;;;;;2.95;1.50;;;;;;;-145.63;61.59;39065.31;5025343;28;20030;-67
2023/07/15 05:50:25;;;;;;;2.88;1.90;;;;;;;-145.63;61.37;39041.84;5024893;28;20092;-65
2023/07/15 05:52:52;;;;;;;2.72;1.60;;;;;;;-145.63;61.53;39055.53;5025204;28;20199;-66
2023/07/15 05:55:19;;;;;;;2.17;1.90;;;;;;;-145.63;61.66;39045.75;5025199;28;20038;-64
2023/07/15 05:57:45;;;;;;;2.40;2.20;;;;;;;-145.63;61.77;39084.88;5007663;28;20064;-65
2023/07/15 06:00:11;;;;;;;2.33;1.92;;;;;;;-145.63;62.01;39086.81;5025286;28;20033;-65
2023/07/15 06:02:38;;;;;;;2.10;2.00;;;;;;;-145.63;61.87;39071.19;5024847;28;20049;-65
2023/07/15 06:05:04;;;;;;;2.38;1.75;;;;;;;-145.63;61.77;39053.59;5024870;28;20029;-66
2023/07/15 06:07:30;;;;;;;4.50;1.95;;;;;;;-145.63;61.89;39051.63;5024979;28;20025;-66
2023/07/15 06:09:56;;;;;;;2.20;2.00;;;;;;;-145.63;61.88;39065.31;5025034;28;20057;-64
2023/07/15 06:12:21;;;;;;;2.13;1.90;;;;;;;-145.63;61.99;39065.31;5024611;28;20026;-65
2023/07/15 06:14:47;;;;;;;3.22;2.00;;;;;;;-145.63;61.81;39049.66;5024865;28;20053;-65
2023/07/15 06:17:12;;;;;;;3.90;2.67;;;;;;;-145.63;62.33;39047.72;5024814;28;20053;-65
2023/07/15 06:19:39;;;;;;;2.78;2.58;;;;;;;-145.63;62.38;39086.81;5024416;28;20310;-67
2023/07/15 06:22:05;;;;;;;2.63;2.42;;;;;;;-145.63;62.56;39073.13;5024895;28;20056;-66
2023/07/15 06:24:31;;;;;;;3.28;2.92;;;;;;;-145.63;62.52;39047.72;5024638;28;20033;-66
2023/07/15 06:26:57;;;;;;;2.67;2.35;;;;;;;-145.63;62.14;39055.53;5024879;28;20084;-66
2023/07/15 06:29:24;;;;;;;3.63;3.05;;;;;;;-145.63;62.31;39043.81;5024562;28;20029;-66
2023/07/15 06:31:51;;;;;;;3.45;3.15;;;;;;;-145.63;61.63;39077.06;5024778;28;20323;-65
2023/07/15 06:34:16;;;;;;;4.57;3.28;;;;;;;-145.63;61.30;39053.59;5024592;28;20037;-65
2023/07/15 06:36:42;;;;;;;5.57;3.10;;;;;;;-145.63;61.28;39026.19;4995731;28;20030;-66
2023/07/15 06:39:08;;;;;;;3.33;3.03;;;;;;;-145.63;61.57;39037.94;5023709;28;20056;-65
2023/07/15 06:41:34;;;;;;;6.38;3.20;;;;;;;-145.63;61.81;39032.06;5023546;28;20060;-66
2023/07/15 06:43:59;;;;;;;3.72;3.40;;;;;;;-145.63;61.63;39063.34;5024148;28;20314;-66
2023/07/15 06:46:25;;;;;;;3.88;3.58;;;;;;;-145.63;61.38;39049.66;5006410;28;20022;-65
2023/07/15 06:48:52;;;;;;;5.85;5.25;;;;;;;-145.63;61.43;39024.25;5006651;28;20030;-65
2023/07/15 06:51:18;;;;;;;3.47;3.15;;;;;;;-145.63;62.00;39051.63;5023953;28;20420;-66
2023/07/15 06:53:44;;;;;;;5.00;3.55;;;;;;;-145.63;61.98;39073.13;5024261;28;20029;-65
2023/07/15 06:56:10;;;;;;;3.63;3.15;;;;;;;-145.63;62.06;39039.88;5024151;28;20049;-66
2023/07/15 06:58:35;;;;;;;3.67;3.08;;;;;;;-145.63;62.35;39035.97;5023874;28;20041;-65
2023/07/15 07:01:01;;;;;;;3.67;3.10;;;;;;;-145.63;62.00;39049.66;5023757;28;20030;-64
2023/07/15 07:03:27;;;;;;;3.38;3.03;;;;;;;-145.63;62.56;39055.53;5021102;28;20034;-65
2023/07/15 07:05:53;;;;;;;5.25;3.25;;;;;;;-145.63;62.25;39094.66;5023778;28;20290;-65
2023/07/15 07:08:22;;;;;;;3.97;3.40;;;;;;;-145.63;62.25;39045.75;5023933;28;20032;-66
2023/07/15 07:10:51;;;;;;;3.78;3.03;;;;;;;-145.63;62.16;39053.59;5023614;28;20030;-66
2023/07/15 07:13:20;;;;;;;5.45;4.28;;;;;;;-145.63;62.19;39051.63;5023450;28;20230;-65
2023/07/15 07:15:47;;;;;;;3.88;3.53;;;;;;;-145.63;62.33;39057.50;4999178;28;20032;-66
2023/07/15 07:18:12;;;;;;;3.58;3.03;;;;;;;-145.63;62.25;39026.19;5013532;28;20374;-66
2023/07/15 07:20:39;;;;;;;4.85;4.00;;;;;;;-145.63;62.63;39004.69;5014726;28;20033;-66
2023/07/15 07:23:05;;;;;;;4.57;4.07;;;;;;;-145.63;62.12;39020.34;5015841;28;20343;-65
2023/07/15 07:25:30;;;;;;;3.85;2.95;;;;;;;-145.63;61.81;39028.16;5012349;28;20034;-65
2023/07/15 07:27:56;;;;;;;3.78;3.45;;;;;;;-145.63;62.23;39022.28;5013948;28;20026;-65
2023/07/15 07:30:21;;;;;;;3.67;3.38;;;;;;;-145.63;61.77;38996.88;5020572;28;20034;-66
2023/07/15 07:32:48;;;;;;;4.78;3.55;;;;;;;-145.63;61.60;39020.34;5019295;28;20049;-66
2023/07/15 07:35:14;;;;;;;4.30;3.85;;;;;;;-145.63;61.48;38973.41;5014329;28;20088;-67
2023/07/15 07:37:40;;;;;;;3.85;3.42;;;;;;;-145.63;61.48;38971.44;5014545;28;20085;-66
2023/07/15 07:40:09;;;;;;;3.40;3.10;;;;;;;-145.63;59.82;38983.19;5017253;28;20123;-65
2023/07/15 07:42:35;;;;;;;4.60;3.17;;;;;;;-145.63;59.23;38979.28;5023141;28;20044;-66
2023/07/15 07:45:01;;;;;;;4.55;3.55;;;;;;;-145.63;59.41;38996.88;5022889;28;20045;-66
2023/07/15 07:47:26;;;;;;;6.30;3.45;;;;;;;-145.63;59.76;38969.50;5023368;28;20393;-65
2023/07/15 07:49:52;;;;;;;3.42;3.08;;;;;;;-145.63;59.94;39000.78;5023259;28;20091;-65
2023/07/15 07:52:18;;;;;;;4.45;3.90;;;;;;;-145.63;59.83;38965.56;5023137;28;20366;-66
2023/07/15 07:54:43;;;;;;;4.38;3.05;;;;;;;-145.63;59.19;38949.94;5023241;28;20029;-66
2023/07/15 07:57:10;;;;;;;3.95;3.42;;;;;;;-145.63;59.30;38957.75;5023071;28;20030;-66
2023/07/15 07:59:35;;;;;;;4.45;3.60;;;;;;;-145.63;58.70;38977.31;5022955;28;20125;-66
2023/07/15 08:02:01;;;;;;;3.53;3.20;;;;;;;-145.63;58.94;38942.13;5023388;28;20026;-67
2023/07/15 08:04:26;;;;;;;4.20;3.65;;;;;;;-145.63;58.63;38938.19;5005551;28;20054;-66
2023/07/15 08:06:52;;;;;;;23.83;21.40;;;;;;;-145.63;58.80;38967.53;5008800;28;20352;-66
2023/07/15 08:09:17;;;;;;;7.18;6.47;;;;;;;-145.63;58.64;38949.94;5010143;28;20048;-66
2023/07/15 08:11:44;;;;;;;4.93;4.53;;;;;;;-145.63;58.06;38938.19;5023457;28;20040;-66
2023/07/15 08:14:10;;;;;;;6.45;4.40;;;;;;;-145.63;58.95;38946.03;5022997;28;20394;-66
2023/07/15 08:16:39;;;;;;;5.53;4.40;;;;;;;-145.63;59.48;38946.03;5022940;28;20030;-66
2023/07/15 08:19:06;;;;;;;4.40;4.00;;;;;;;-145.63;59.61;38922.56;5016266;28;20089;-67
2023/07/15 08:21:32;;;;;;;4.45;4.10;;;;;;;-145.63;59.08;38928.44;5005292;28;20114;-66
2023/07/15 08:23:58;;;;;;;5.25;3.50;;;;;;;-145.63;58.27;38914.72;5005617;28;20089;-65
2023/07/15 08:26:24;;;;;;;5.03;4.00;;;;;;;-145.63;58.49;38920.59;5019867;28;20022;-65
2023/07/15 08:28:50;;;;;;;4.20;3.80;;;;;;;-145.63;57.86;38930.38;4995773;28;20018;-66
2023/07/15 08:31:16;;;;;;;4.22;3.70;;;;;;;-145.63;55.75;38930.38;4992163;28;20064;-65
2023/07/15 08:33:42;;;;;;;3.78;3.47;;;;;;;-145.63;56.78;38572.53;5022760;28;20029;-64
2023/07/15 08:36:08;;;;;;;4.75;4.22;;;;;;;-145.63;56.32;38910.81;5022764;28;20337;-66
2023/07/15 08:38:34;;;;;;;3.70;3.40;;;;;;;-145.63;55.28;38914.72;5022849;28;20664;-66
2023/07/15 08:41:01;;;;;;;4.55;3.65;;;;;;;-145.63;56.13;38869.75;5022625;28;20130;-65
2023/07/15 08:43:30;;;;;;;5.60;3.55;;;;;;;-145.63;56.97;38883.44;5022668;28;20159;-66
2023/07/15 08:45:58;;;;;;;4.68;3.83;;;;;;;-145.63;56.35;38891.28;5022565;28;20029;-66
2023/07/15 08:48:25;;;;;;;4.00;3.25;;;;;;;-145.63;55.39;38938.19;5003099;28;20081;-65
2023/07/15 08:50:56;;;;;;;4.32;3.95;;;;;;;-145.63;55.31;38914.72;5018281;28;20313;-66
2023/07/15 08:53:26;;;;;;;23.97;21.50;;;;;;;-145.63;55.51;38916.69;5022388;28;20049;-66
2023/07/15 08:55:55;;;;;;;6.05;5.10;;;;;;;-145.63;55.73;38926.47;5022655;28;20050;-67
2023/07/15 08:58:21;;;;;;;3.85;3.45;;;;;;;-145.63;55.49;38908.88;5022586;28;20025;-65
2023/07/15 09:00:47;;;;;;;4.40;3.20;;;;;;;-145.63;55.54;38914.72;5022593;28;20093;-66
2023/07/15 09:03:12;;;;;;;4.35;3.95;;;;;;;-145.63;55.12;38875.63;5022492;28;20271;-67
2023/07/15 09:05:38;;;;;;;9.02;4.32;;;;;;;-145.63;55.36;38908.88;5025747;28;20325;-66
2023/07/15 09:08:12;;;;;;;4.97;4.07;;;;;;;-145.63;54.17;38940.16;5026305;28;20026;-66
2023/07/15 09:10:58;;;;;;;3.53;3.22;;;;;;;-145.63;54.79;38879.53;5025916;28;20096;-66
2023/07/15 09:13:28;;;;;;;3.50;3.20;;;;;;;-145.63;54.58;38887.34;5026063;28;20054;-65
2023/07/15 09:15:57;;;;;;;4.43;3.83;;;;;;;-145.63;54.06;38906.91;5026150;28;20057;-64
2023/07/15 09:18:23;;;;;;;5.25;4.45;;;;;;;-145.63;52.96;38891.28;5026030;28;20084;-65
2023/07/15 09:20:49;;;;;;;3.80;3.30;;;;;;;-145.63;51.81;38873.66;5026016;28;20029;-65
2023/07/15 09:23:16;;;;;;;4.57;4.13;;;;;;;-145.63;52.38;38852.16;5025622;28;20218;-65
2023/07/15 09:25:50;;;;;;;4.13;3.42;;;;;;;-145.63;52.92;38852.16;5025846;28;20026;-64
2023/07/15 09:28:16;;;;;;;4.95;4.30;;;;;;;-145.63;52.67;38867.81;5025520;28;20045;-65
2023/07/15 09:30:41;;;;;;;4.93;2.83;;;;;;;-145.63;52.93;38848.25;5025849;28;20061;-65
2023/07/15 09:33:07;;;;;;;4.13;3.45;;;;;;;-145.63;52.90;38867.81;5025434;28;20072;-64
2023/07/15 09:35:36;;;;;;;5.63;3.78;;;;;;;-145.63;52.99;38863.88;5025450;28;20057;-65
2023/07/15 09:38:03;;;;;;;3.88;3.55;;;;;;;-145.63;53.32;38856.06;5025603;28;20036;-65
2023/07/15 09:40:43;;;;;;;3.70;3.40;;;;;;;-145.63;53.10;38840.44;5007896;28;20037;-65
2023/07/15 09:43:08;;;;;;;4.18;3.78;;;;;;;-145.63;52.06;38840.44;5025470;28;20029;-65
2023/07/15 09:45:36;;;;;;;3.72;3.33;;;;;;;-145.63;51.83;38846.28;5024890;28;20030;-65
2023/07/15 09:48:04;;;;;;;4.70;4.03;;;;;;;-145.63;51.80;38871.72;5025154;28;20318;-65
2023/07/15 09:50:32;;;;;;;4.07;3.38;;;;;;;-145.63;51.94;38891.28;5025158;28;20297;-65
2023/07/15 09:52:59;;;;;;;5.90;3.58;;;;;;;-145.63;51.98;38805.22;5025369;28;20073;-65
2023/07/15 09:55:25;;;;;;;4.55;4.15;;;;;;;-145.63;51.26;38779.81;5025508;28;20049;-66
2023/07/15 09:58:01;;;;;;;4.93;4.43;;;;;;;-145.63;51.40;38766.13;5027688;28;20049;-66
2023/07/15 10:00:31;;;;;;;5.00;4.10;;;;;;;-145.63;52.48;38820.88;5007497;28;20239;-65
2023/07/15 10:02:59;;;;;;;5.80;4.55;;;;;;;-145.63;52.77;38721.13;5025280;28;20038;-64
2023/07/15 10:05:26;;;;;;;5.18;3.92;;;;;;;-145.63;52.06;38711.38;5007210;28;20018;-66
2023/07/15 10:07:53;;;;;;;4.30;3.90;;;;;;;-145.63;51.18;38713.31;5007754;28;20261;-65
2023/07/15 10:10:22;;;;;;;4.65;3.92;;;;;;;-145.63;51.01;38703.53;5024681;28;20327;-66
2023/07/15 10:12:49;;;;;;;4.75;4.35;;;;;;;-145.63;51.78;38699.63;5024638;28;20053;-65
2023/07/15 10:15:15;;;;;;;5.53;4.00;;;;;;;-145.63;51.60;38742.66;5024127;28;20063;-66
2023/07/15 10:17:41;;;;;;;4.50;4.10;;;;;;;-145.63;51.79;38752.44;5024341;28;20068;-65
2023/07/15 10:20:11;;;;;;;4.45;3.85;;;;;;;-145.63;50.48;38723.09;5007392;28;20030;-65
2023/07/15 10:22:38;;;;;;;4.97;3.83;;;;;;;-145.63;50.97;38736.78;5024384;28;20301;-67
2023/07/15 10:25:07;;;;;;;4.75;4.32;;;;;;;-145.63;51.22;38699.63;5007166;28;20325;-65
2023/07/15 10:27:33;;;;;;;4.10;3.55;;;;;;;-145.63;49.80;38707.44;5005427;28;20231;-67
2023/07/15 10:30:24;;;;;;;3.97;3.47;;;;;;;-145.63;50.64;38732.88;5024444;28;20085;-66
2023/07/15 10:32:59;;;;;;;3.50;3.20;;;;;;;-145.63;49.27;38684.00;5008823;28;20038;-66
2023/07/15 10:35:29;;;;;;;5.78;3.88;;;;;;;-145.63;49.88;38680.06;5015218;28;20030;-66
2023/07/15 10:37:56;;;;;;;3.15;2.83;;;;;;;-145.63;50.74;38684.00;5024764;28;20084;-65
2023/07/15 10:40:49;;;;;;;4.22;3.55;;;;;;;-145.63;50.60;38687.91;5023946;28;20029;-66
2023/07/15 10:43:33;;;;;;;2.60;2.40;;;;;;;-145.63;49.26;37856.94;5007002;28;20025;-65
2023/07/15 10:46:04;;;;;;;2.92;2.67;;;;;;;-145.63;49.08;38699.63;5023994;28;20021;-64
2023/07/15 10:48:29;;;;;;;4.40;3.97;;;;;;;-145.63;49.04;38730.91;5024051;28;20177;-65
2023/07/15 10:50:58;;;;;;;5.07;3.70;;;;;;;-145.63;50.37;38738.75;5023841;28;20030;-65
2023/07/15 10:53:26;;;;;;;5.35;3.50;;;;;;;-145.63;50.77;38783.72;5013454;28;20030;-65
2023/07/15 10:56:01;;;;;;;4.28;3.55;;;;;;;-145.63;50.88;38752.44;5010309;28;20030;-66
2023/07/15 10:58:28;;;;;;;3.95;3.15;;;;;;;-145.63;50.59;38781.75;5020715;28;20030;-66
2023/07/15 11:01:07;;;;;;;3.83;3.00;;;;;;;-145.63;50.77;38746.56;5023829;28;20093;-64
2023/07/15 11:03:44;;;;;;;3.60;3.30;;;;;;;-145.63;50.76;38746.56;5004273;28;20065;-65
2023/07/15 11:06:11;;;;;;;4.30;3.38;;;;;;;-145.63;49.54;38693.75;5019979;28;20025;-66
2023/07/15 11:08:38;;;;;;;3.55;2.83;;;;;;;-145.63;49.34;38703.53;5023693;28;20357;-66
2023/07/15 11:11:06;;;;;;;6.55;2.92;;;;;;;-145.63;50.42;38676.16;5023715;28;20088;-64
2023/07/15 11:13:35;;;;;;;2.35;2.15;;;;;;;-145.63;49.05;38629.22;5023745;28;20092;-65
2023/07/15 11:16:01;;;;;;;2.40;2.22;;;;;;;-145.63;48.73;38727.00;5006069;28;20045;-65